Time;durP1;ratioP1;P1;durP2;ratioP2;P2;SDS_P1;SDS_P2;PMS_P1;PMS_P2;Temp;Humidity;BMP_temperature;BMP_pressure;BME280_temperature;BME280_humidity;BME280_pressure;Samples;Min_cycle;Max_cycle;Signal;HPM_P1;HPM_P2
2024/03/10 00:00:57;;;;;;;2.27;1.97;;;11.00;24.60;;;;;;4994598;28;20214;-59
2024/03/10 00:03:24;;;;;;;1.90;1.80;;;11.10;24.40;;;;;;4993962;28;20293;-59
2024/03/10 00:05:51;;;;;;;1.93;1.73;;;11.10;24.70;;;;;;4994994;28;20213;-57
2024/03/10 00:08:18;;;;;;;2.10;2.00;;;11.10;24.60;;;;;;4995531;28;20214;-58
2024/03/10 00:10:46;;;;;;;4.50;2.03;;;11.10;24.50;;;;;;4990568;28;20222;-57
2024/03/10 00:13:13;;;;;;;2.40;2.20;;;11.10;24.70;;;;;;4990767;28;20231;-57
2024/03/10 00:15:39;;;;;;;2.77;2.20;;;11.10;24.50;;;;;;4997504;28;20211;-57
2024/03/10 00:18:06;;;;;;;1.80;1.70;;;11.00;24.70;;;;;;4998352;28;20207;-57
2024/03/10 00:20:33;;;;;;;1.73;1.63;;;11.10;24.60;;;;;;4998928;28;20751;-55
2024/03/10 00:22:59;;;;;;;2.73;1.70;;;10.90;24.80;;;;;;4999232;28;20249;-58
2024/03/10 00:25:27;;;;;;;1.70;1.60;;;10.90;24.90;;;;;;4999316;28;20262;-58
2024/03/10 00:27:53;;;;;;;1.70;1.60;;;10.90;24.80;;;;;;4989806;28;20207;-58
2024/03/10 00:30:20;;;;;;;1.70;1.60;;;11.00;24.60;;;;;;4993675;28;20221;-59
2024/03/10 00:32:46;;;;;;;1.60;1.50;;;11.00;24.50;;;;;;4998692;28;20235;-58
2024/03/10 00:35:14;;;;;;;1.80;1.70;;;11.10;24.50;;;;;;4999661;28;20219;-57
2024/03/10 00:37:40;;;;;;;1.50;1.40;;;11.00;25.00;;;;;;4999446;28;20245;-58
2024/03/10 00:40:07;;;;;;;1.60;1.50;;;11.00;24.20;;;;;;5000157;28;20216;-57
2024/03/10 00:42:34;;;;;;;1.50;1.40;;;11.10;24.40;;;;;;4999906;28;20265;-59
2024/03/10 00:45:00;;;;;;;1.83;1.73;;;11.10;24.30;;;;;;4993694;28;20207;-59
2024/03/10 00:47:27;;;;;;;1.30;1.30;;;11.20;23.90;;;;;;4997018;28;20207;-60
2024/03/10 00:49:54;;;;;;;2.70;1.60;;;11.30;24.10;;;;;;4994049;28;20206;-59
2024/03/10 00:52:20;;;;;;;1.90;1.80;;;11.40;24.00;;;;;;4999745;28;20231;-58
2024/03/10 00:54:47;;;;;;;1.70;1.60;;;11.50;24.00;;;;;;4999330;28;20210;-58
2024/03/10 00:57:14;;;;;;;1.60;1.50;;;11.50;24.00;;;;;;4998772;28;20699;-56
2024/03/10 00:59:40;;;;;;;1.60;1.50;;;11.40;24.00;;;;;;4999327;28;20218;-59
2024/03/10 01:02:07;;;;;;;1.77;1.67;;;11.30;23.90;;;;;;4996155;28;20763;-61
2024/03/10 01:04:34;;;;;;;1.50;1.40;;;11.40;23.90;;;;;;4993320;28;20211;-61
2024/03/10 01:07:01;;;;;;;1.70;1.60;;;11.30;23.60;;;;;;4995106;28;20740;-60
2024/03/10 01:09:27;;;;;;;1.60;1.50;;;11.40;23.60;;;;;;4995992;28;20215;-60
2024/03/10 01:11:54;;;;;;;1.60;1.50;;;11.50;23.40;;;;;;5002782;28;20230;-60
2024/03/10 01:14:20;;;;;;;1.70;1.60;;;11.50;23.50;;;;;;5002503;28;20582;-60
2024/03/10 01:16:48;;;;;;;1.43;1.33;;;11.40;23.80;;;;;;5002928;28;20211;-60
2024/03/10 01:19:14;;;;;;;1.70;1.60;;;11.40;23.60;;;;;;5000803;28;20211;-59
2024/03/10 01:21:41;;;;;;;1.60;1.50;;;11.30;23.70;;;;;;5003897;28;20257;-60
2024/03/10 01:24:08;;;;;;;1.40;1.40;;;11.30;23.80;;;;;;4998720;28;20624;-59
2024/03/10 01:26:34;;;;;;;1.63;1.53;;;11.40;23.90;;;;;;4996068;28;20207;-60
2024/03/10 01:29:01;;;;;;;1.73;1.63;;;11.30;23.90;;;;;;4999160;28;20414;-56
2024/03/10 01:31:28;;;;;;;1.70;1.60;;;11.20;23.80;;;;;;5000747;28;20246;-58
2024/03/10 01:33:54;;;;;;;1.77;1.60;;;11.10;23.70;;;;;;5001765;28;20721;-58
2024/03/10 01:36:21;;;;;;;1.50;1.40;;;11.20;24.00;;;;;;4999317;28;20219;-59
2024/03/10 01:38:47;;;;;;;1.40;1.40;;;11.20;23.80;;;;;;4997976;28;20210;-56
2024/03/10 01:41:14;;;;;;;1.60;1.50;;;11.20;23.80;;;;;;4998622;28;20219;-60
2024/03/10 01:43:40;;;;;;;1.70;1.60;;;11.10;24.00;;;;;;5002307;28;20203;-59
2024/03/10 01:46:08;;;;;;;1.80;1.70;;;11.10;24.00;;;;;;5002374;28;20249;-58
2024/03/10 01:48:34;;;;;;;1.70;1.60;;;11.10;24.30;;;;;;4995588;28;20619;-60
2024/03/10 01:51:01;;;;;;;1.50;1.40;;;11.10;24.60;;;;;;5003774;28;20272;-58
2024/03/10 01:53:31;;;;;;;1.60;1.50;;;11.10;24.40;;;;;;4994578;28;20586;-59
2024/03/10 01:55:57;;;;;;;1.70;1.60;;;11.20;24.60;;;;;;5000011;28;20218;-57
2024/03/10 01:58:24;;;;;;;1.70;1.60;;;11.20;24.40;;;;;;5000532;28;20736;-57
2024/03/10 02:00:51;;;;;;;1.80;1.70;;;11.20;24.60;;;;;;5000115;28;20241;-60
2024/03/10 02:03:17;;;;;;;1.70;1.60;;;11.20;24.60;;;;;;4999726;28;20226;-60
2024/03/10 02:05:46;;;;;;;1.60;1.50;;;11.20;24.60;;;;;;4996596;28;20207;-59
2024/03/10 02:08:14;;;;;;;1.60;1.50;;;11.30;24.70;;;;;;4999477;28;20211;-58
2024/03/10 02:10:40;;;;;;;1.63;1.53;;;11.40;24.60;;;;;;4996085;28;20221;-58
2024/03/10 02:13:07;;;;;;;1.70;1.60;;;11.40;24.50;;;;;;4999862;28;20262;-60
2024/03/10 02:15:33;;;;;;;1.60;1.50;;;11.30;25.00;;;;;;4999812;28;20674;-59
2024/03/10 02:18:00;;;;;;;1.50;1.40;;;11.20;24.90;;;;;;4999199;28;20210;-59
2024/03/10 02:20:26;;;;;;;1.70;1.60;;;11.30;24.60;;;;;;4999964;28;20232;-58
2024/03/10 02:22:53;;;;;;;1.70;1.60;;;11.40;24.60;;;;;;4992052;28;20235;-58
2024/03/10 02:25:22;;;;;;;1.70;1.60;;;11.20;25.10;;;;;;4999676;28;20211;-59
2024/03/10 02:27:50;;;;;;;1.83;1.73;;;11.10;25.30;;;;;;4996729;28;20214;-57
2024/03/10 02:30:29;;;;;;;1.70;1.60;;;11.20;25.30;;;;;;4999453;28;20209;-60
2024/03/10 02:49:21;;;;;;;1.60;1.50;;;11.10;25.20;;;;;;4999876;28;20696;-60
2024/03/10 02:51:49;;;;;;;1.60;1.50;;;11.00;25.30;;;;;;4994107;28;20611;-57
2024/03/10 02:54:16;;;;;;;1.50;1.40;;;10.90;25.50;;;;;;4988829;28;20270;-59
2024/03/10 02:56:42;;;;;;;1.60;1.50;;;10.90;25.50;;;;;;4999042;28;20217;-57
2024/03/10 02:59:09;;;;;;;1.60;1.50;;;11.00;25.40;;;;;;4999305;28;20210;-58
2024/03/10 03:01:37;;;;;;;1.90;1.80;;;11.00;25.50;;;;;;4997204;28;20267;-58
2024/03/10 03:04:04;;;;;;;1.77;1.60;;;11.00;25.60;;;;;;4998667;28;20211;-59
2024/03/10 03:06:31;;;;;;;1.70;1.60;;;11.10;25.50;;;;;;4998747;28;20209;-58
2024/03/10 03:08:57;;;;;;;6.63;4.63;;;11.10;25.50;;;;;;4994390;28;20218;-58
2024/03/10 03:11:24;;;;;;;2.20;2.00;;;11.20;25.50;;;;;;4990050;28;20227;-59
2024/03/10 03:13:51;;;;;;;2.07;1.90;;;11.10;25.70;;;;;;4998358;28;20642;-59
2024/03/10 03:16:18;;;;;;;1.70;1.60;;;11.20;25.60;;;;;;4997520;28;20211;-58
2024/03/10 03:18:45;;;;;;;1.53;1.43;;;11.10;25.50;;;;;;4995222;28;20239;-59
2024/03/10 03:21:11;;;;;;;1.50;1.40;;;11.20;25.70;;;;;;4999960;28;20221;-57
2024/03/10 03:23:38;;;;;;;1.50;1.40;;;11.20;25.80;;;;;;4998670;28;20699;-59
2024/03/10 03:26:04;;;;;;;1.70;1.40;;;11.10;25.80;;;;;;4994265;28;20210;-59
2024/03/10 03:28:31;;;;;;;1.27;1.27;;;11.10;25.80;;;;;;4988640;28;20214;-57
2024/03/10 03:30:57;;;;;;;1.50;1.40;;;11.10;25.80;;;;;;4998365;28;20210;-60
2024/03/10 03:33:24;;;;;;;1.50;1.40;;;11.10;25.80;;;;;;4997919;28;20230;-60
2024/03/10 03:35:51;;;;;;;1.60;1.50;;;11.00;26.20;;;;;;4994397;28;20302;-58
2024/03/10 03:38:18;;;;;;;2.03;1.50;;;11.10;26.20;;;;;;4995042;28;20214;-60
2024/03/10 03:40:44;;;;;;;1.77;1.40;;;10.90;26.90;;;;;;4995826;28;20210;-60
2024/03/10 03:43:11;;;;;;;1.67;1.57;;;10.90;26.70;;;;;;4994386;28;20727;-58
2024/03/10 03:45:38;;;;;;;2.00;1.80;;;10.80;26.90;;;;;;4990459;28;20236;-59
2024/03/10 03:48:05;;;;;;;1.77;1.67;;;10.70;27.30;;;;;;4993680;28;20213;-57
2024/03/10 03:50:31;;;;;;;1.80;1.70;;;10.50;27.10;;;;;;4998935;28;20276;-58
2024/03/10 03:52:58;;;;;;;1.87;1.63;;;10.70;27.20;;;;;;4991505;28;20236;-58
2024/03/10 03:55:24;;;;;;;1.50;1.40;;;10.80;27.30;;;;;;4994299;28;20593;-59
2024/03/10 03:57:51;;;;;;;1.73;1.40;;;10.80;27.30;;;;;;4992123;28;20676;-57
2024/03/10 04:00:18;;;;;;;1.60;1.50;;;10.80;27.30;;;;;;4995995;28;20678;-57
2024/03/10 04:02:46;;;;;;;1.60;1.50;;;10.70;27.20;;;;;;4992045;28;20601;-57
2024/03/10 04:05:13;;;;;;;1.73;1.63;;;10.70;27.30;;;;;;4990612;28;20214;-59
2024/03/10 04:07:39;;;;;;;2.00;1.90;;;10.50;27.70;;;;;;4995313;28;20225;-59
2024/03/10 04:10:09;;;;;;;1.60;1.50;;;10.60;27.60;;;;;;4993603;28;20222;-57
2024/03/10 04:12:36;;;;;;;1.97;1.87;;;10.60;27.30;;;;;;4996000;28;20231;-57
2024/03/10 04:15:02;;;;;;;1.70;1.60;;;10.50;27.30;;;;;;4996132;28;20226;-56
2024/03/10 04:17:29;;;;;;;2.10;1.70;;;10.50;27.60;;;;;;4996420;28;20676;-59
2024/03/10 04:19:55;;;;;;;1.77;1.50;;;10.50;28.20;;;;;;4994836;28;20663;-59
2024/03/10 04:22:22;;;;;;;1.93;1.83;;;10.60;28.10;;;;;;4993024;28;20721;-58
2024/03/10 04:24:49;;;;;;;3.13;1.70;;;10.40;29.00;;;;;;4998524;28;20200;-58
2024/03/10 04:27:16;;;;;;;1.90;1.80;;;10.10;28.50;;;;;;4998433;28;20220;-60
2024/03/10 04:29:42;;;;;;;1.70;1.60;;;10.40;27.90;;;;;;4998027;28;20216;-59
2024/03/10 04:32:09;;;;;;;1.70;1.60;;;10.60;27.60;;;;;;4998577;28;20293;-59
2024/03/10 04:34:36;;;;;;;1.90;1.80;;;10.50;27.90;;;;;;4998450;28;20712;-57
2024/03/10 04:37:02;;;;;;;1.57;1.40;;;10.40;28.50;;;;;;4995322;28;20202;-61
2024/03/10 04:39:29;;;;;;;1.70;1.60;;;10.60;27.70;;;;;;4988126;28;20664;-60
2024/03/10 04:41:56;;;;;;;1.60;1.50;;;10.70;27.60;;;;;;4998320;28;20238;-60
2024/03/10 04:44:22;;;;;;;1.77;1.67;;;10.70;27.50;;;;;;5001007;28;20218;-57
2024/03/10 04:46:49;;;;;;;1.30;1.27;;;10.60;28.00;;;;;;5002657;28;20287;-60
2024/03/10 04:49:17;;;;;;;2.07;1.70;;;10.40;28.80;;;;;;5003201;28;20206;-59
2024/03/10 04:51:44;;;;;;;1.30;1.30;;;10.30;28.90;;;;;;5001726;28;20233;-59
2024/03/10 04:54:11;;;;;;;2.13;1.60;;;10.20;28.60;;;;;;5003890;28;20236;-59
2024/03/10 04:56:37;;;;;;;1.70;1.60;;;10.20;28.80;;;;;;4995627;28;20213;-59
2024/03/10 04:59:03;;;;;;;1.70;1.60;;;10.00;28.50;;;;;;5001554;28;20216;-59
2024/03/10 05:01:29;;;;;;;1.90;1.80;;;10.00;29.30;;;;;;5002164;28;20234;-59
2024/03/10 05:03:56;;;;;;;1.83;1.73;;;9.90;30.10;;;;;;5003604;28;20201;-59
2024/03/10 05:06:23;;;;;;;1.80;1.70;;;10.00;28.80;;;;;;5004059;28;20217;-58
2024/03/10 05:08:49;;;;;;;1.60;1.50;;;10.10;28.80;;;;;;5003266;28;20208;-59
2024/03/10 05:11:18;;;;;;;1.67;1.57;;;10.20;28.40;;;;;;5003731;28;20209;-60
2024/03/10 05:13:45;;;;;;;1.70;1.60;;;10.30;28.20;;;;;;4990479;28;20594;-59
2024/03/10 05:16:12;;;;;;;1.30;1.30;;;10.30;28.20;;;;;;5002662;28;20241;-60
2024/03/10 05:18:40;;;;;;;1.60;1.50;;;10.30;28.10;;;;;;5011954;28;20212;-60
2024/03/10 05:21:07;;;;;;;1.60;1.40;;;10.30;27.80;;;;;;5005286;28;20345;-60
2024/03/10 05:23:33;;;;;;;1.60;1.50;;;10.20;27.70;;;;;;5004968;28;20212;-59
2024/03/10 05:26:00;;;;;;;1.50;1.40;;;10.30;28.00;;;;;;5004351;28;20213;-59
2024/03/10 05:28:27;;;;;;;1.40;1.30;;;10.30;27.90;;;;;;5003272;28;20207;-60
2024/03/10 05:30:53;;;;;;;1.50;1.40;;;10.30;28.00;;;;;;5000814;28;20216;-60
2024/03/10 05:33:20;;;;;;;1.70;1.60;;;10.20;28.10;;;;;;4996789;28;20290;-59
2024/03/10 05:35:49;;;;;;;1.20;1.20;;;10.30;28.00;;;;;;5006201;28;20216;-59
2024/03/10 05:38:15;;;;;;;1.60;1.50;;;10.20;28.10;;;;;;5006106;28;20252;-60
2024/03/10 05:40:42;;;;;;;1.50;1.40;;;10.20;28.30;;;;;;4998947;28;20236;-60
2024/03/10 05:43:09;;;;;;;1.40;1.30;;;10.30;28.50;;;;;;5006287;28;20738;-59
2024/03/10 05:45:35;;;;;;;1.60;1.50;;;10.20;28.30;;;;;;5002858;28;20212;-59
2024/03/10 05:48:02;;;;;;;1.53;1.43;;;10.20;28.70;;;;;;4999112;28;20212;-61
2024/03/10 05:50:29;;;;;;;1.50;1.40;;;10.00;28.50;;;;;;4990022;28;20233;-59
2024/03/10 05:52:56;;;;;;;1.60;1.50;;;10.00;28.50;;;;;;4992096;28;20295;-59
2024/03/10 05:55:22;;;;;;;1.50;1.40;;;10.10;28.30;;;;;;5000555;28;20577;-60
2024/03/10 05:57:49;;;;;;;1.50;1.40;;;10.20;28.40;;;;;;5000305;28;20209;-57
2024/03/10 06:00:16;;;;;;;1.20;1.20;;;10.20;28.50;;;;;;5000318;28;20211;-57
2024/03/10 06:02:44;;;;;;;1.53;1.50;;;10.20;28.60;;;;;;4993073;28;20229;-59
2024/03/10 06:05:11;;;;;;;1.77;1.67;;;10.10;29.60;;;;;;5001315;28;20282;-59
2024/03/10 06:07:38;;;;;;;1.47;1.37;;;9.90;30.30;;;;;;4994306;28;20209;-58
2024/03/10 06:10:06;;;;;;;1.53;1.43;;;10.00;29.80;;;;;;5000237;28;20248;-60
2024/03/10 06:12:32;;;;;;;3.13;2.00;;;9.90;31.00;;;;;;5000037;28;20231;-57
2024/03/10 06:14:59;;;;;;;1.70;1.60;;;9.80;30.50;;;;;;4999148;28;20286;-60
2024/03/10 06:17:31;;;;;;;1.57;1.47;;;9.90;30.80;;;;;;4999077;28;20742;-59
2024/03/10 06:25:27;;;;;;;1.50;1.40;;;10.20;29.50;;;;;;4989598;28;20192;-60
2024/03/10 06:27:54;;;;;;;1.43;1.40;;;10.10;29.40;;;;;;4999252;28;20828;-57
2024/03/10 06:30:20;;;;;;;1.37;1.30;;;10.30;29.30;;;;;;4999194;28;20205;-57
2024/03/10 06:32:49;;;;;;;1.70;1.60;;;10.20;29.50;;;;;;4999539;28;20275;-59
2024/03/10 06:35:16;;;;;;;1.50;1.40;;;10.30;29.20;;;;;;4999579;28;20236;-59
2024/03/10 06:37:42;;;;;;;1.53;1.43;;;10.30;29.40;;;;;;4991011;28;20209;-60
2024/03/10 06:40:09;;;;;;;1.30;1.30;;;10.30;29.10;;;;;;4993484;28;20689;-58
2024/03/10 06:42:36;;;;;;;1.50;1.40;;;10.50;29.10;;;;;;4991254;28;20289;-58
2024/03/10 06:45:04;;;;;;;1.47;1.30;;;10.40;29.10;;;;;;4991083;28;20270;-56
2024/03/10 06:47:31;;;;;;;1.67;1.50;;;10.40;29.00;;;;;;4998709;28;20200;-59
2024/03/10 06:49:58;;;;;;;1.73;1.47;;;10.40;29.10;;;;;;4999761;28;20236;-57
2024/03/10 06:52:24;;;;;;;1.50;1.40;;;10.30;29.80;;;;;;4999077;28;20230;-58
2024/03/10 06:54:51;;;;;;;1.53;1.43;;;10.30;29.40;;;;;;4997928;28;20230;-60
2024/03/10 06:57:18;;;;;;;1.50;1.40;;;10.30;29.20;;;;;;4998189;28;20217;-59
2024/03/10 06:59:44;;;;;;;1.40;1.40;;;10.40;28.90;;;;;;4987437;28;20209;-56
2024/03/10 07:02:12;;;;;;;1.20;1.20;;;10.60;29.70;;;;;;4985977;28;20236;-59
2024/03/10 07:04:40;;;;;;;1.40;1.40;;;10.60;29.10;;;;;;4978735;28;20209;-58
2024/03/10 07:07:08;;;;;;;1.60;1.50;;;10.60;29.30;;;;;;4998359;28;20575;-60
2024/03/10 07:09:34;;;;;;;1.33;1.30;;;10.60;29.20;;;;;;4998524;28;20304;-60
2024/03/10 07:12:01;;;;;;;1.70;1.40;;;10.60;29.30;;;;;;4996252;28;20688;-58
2024/03/10 07:14:28;;;;;;;1.67;1.40;;;10.70;29.50;;;;;;4996521;28;20296;-58
2024/03/10 07:16:54;;;;;;;1.30;1.30;;;10.70;29.00;;;;;;4993447;28;20218;-59
2024/03/10 07:19:21;;;;;;;1.73;1.40;;;10.70;29.20;;;;;;4993464;28;20207;-60
2024/03/10 07:21:47;;;;;;;1.20;1.20;;;10.70;29.20;;;;;;4982786;28;20243;-59
2024/03/10 07:24:14;;;;;;;1.47;1.40;;;10.80;29.30;;;;;;4990860;28;20214;-56
2024/03/10 07:26:41;;;;;;;1.30;1.30;;;10.90;29.40;;;;;;4995041;28;20229;-60
2024/03/10 07:29:08;;;;;;;1.77;1.67;;;10.90;29.30;;;;;;4994244;28;20209;-56
2024/03/10 07:31:34;;;;;;;1.50;1.43;;;10.80;29.40;;;;;;4988403;28;20276;-58
2024/03/10 07:34:03;;;;;;;1.63;1.53;;;10.80;29.60;;;;;;4993060;28;20229;-58
2024/03/10 07:36:29;;;;;;;1.70;1.60;;;11.00;29.60;;;;;;4993903;28;20215;-57
2024/03/10 07:38:57;;;;;;;1.50;1.40;;;11.00;29.60;;;;;;4986894;28;20302;-58
2024/03/10 07:41:26;;;;;;;1.77;1.67;;;10.90;29.60;;;;;;4979519;28;20605;-59
2024/03/10 07:43:53;;;;;;;1.70;1.60;;;10.90;29.80;;;;;;4985018;28;20637;-56
2024/03/10 07:46:19;;;;;;;1.73;1.63;;;11.00;29.70;;;;;;4979095;28;20230;-57
2024/03/10 07:48:46;;;;;;;1.80;1.70;;;11.10;30.00;;;;;;4987210;28;20230;-57
2024/03/10 07:51:13;;;;;;;1.70;1.60;;;11.10;29.90;;;;;;4981745;28;20238;-58
2024/03/10 07:53:40;;;;;;;1.80;1.70;;;11.10;30.20;;;;;;4967362;28;20573;-58
2024/03/10 07:56:06;;;;;;;1.70;1.60;;;11.10;30.30;;;;;;4983555;28;20238;-59
2024/03/10 07:58:33;;;;;;;1.90;1.80;;;11.20;30.40;;;;;;4984396;28;20214;-57
2024/03/10 08:00:59;;;;;;;2.50;1.87;;;11.40;30.10;;;;;;4990021;28;20207;-58
2024/03/10 08:03:26;;;;;;;1.63;1.53;;;11.50;30.00;;;;;;4990836;28;20207;-57
2024/03/10 08:05:52;;;;;;;1.70;1.60;;;11.50;29.90;;;;;;4978571;28;20226;-56
2024/03/10 08:08:19;;;;;;;1.60;1.50;;;11.50;30.00;;;;;;4987200;28;20214;-57
2024/03/10 08:10:45;;;;;;;1.50;1.40;;;11.60;29.90;;;;;;4989586;28;20222;-57
2024/03/10 08:13:12;;;;;;;1.70;1.60;;;11.60;30.00;;;;;;4986267;28;20741;-58
2024/03/10 08:15:39;;;;;;;1.60;1.50;;;11.60;30.00;;;;;;4971268;28;20238;-58
2024/03/10 08:18:05;;;;;;;1.70;1.60;;;11.70;30.10;;;;;;4983109;28;20219;-57
2024/03/10 08:20:32;;;;;;;1.53;1.43;;;11.60;30.50;;;;;;4993849;28;20226;-59
2024/03/10 08:22:58;;;;;;;1.60;1.50;;;11.80;30.50;;;;;;4970721;28;20320;-60
2024/03/10 08:25:25;;;;;;;1.60;1.50;;;11.90;30.50;;;;;;4985049;28;20204;-58
2024/03/10 08:27:54;;;;;;;1.80;1.70;;;12.00;30.20;;;;;;4992643;28;20222;-58
2024/03/10 08:30:21;;;;;;;1.60;1.50;;;12.10;30.60;;;;;;4973574;28;20212;-58
2024/03/10 08:32:48;;;;;;;1.70;1.60;;;12.20;30.40;;;;;;4984266;28;20421;-58
2024/03/10 08:35:17;;;;;;;1.53;1.43;;;12.30;30.70;;;;;;4986554;28;20287;-58
2024/03/10 08:37:44;;;;;;;2.63;1.63;;;12.50;30.40;;;;;;4982776;28;20211;-58
2024/03/10 08:40:11;;;;;;;1.60;1.50;;;12.50;30.60;;;;;;4989668;28;20220;-58
2024/03/10 08:42:36;;;;;;;1.70;1.60;;;12.50;31.00;;;;;;4972861;28;20228;-58
2024/03/10 08:45:03;;;;;;;2.27;1.60;;;12.50;31.30;;;;;;4976151;28;20227;-58
2024/03/10 08:47:30;;;;;;;1.73;1.63;;;12.50;31.10;;;;;;4985689;28;20699;-58
2024/03/10 08:49:57;;;;;;;1.80;1.70;;;12.40;31.10;;;;;;4990650;28;20234;-57
2024/03/10 08:52:24;;;;;;;1.63;1.53;;;12.30;31.40;;;;;;4988561;28;20237;-57
2024/03/10 08:54:50;;;;;;;1.63;1.53;;;12.30;31.50;;;;;;4979555;28;20223;-57
2024/03/10 08:57:17;;;;;;;2.30;2.10;;;12.40;31.80;;;;;;4988439;28;20215;-59
2024/03/10 08:59:43;;;;;;;1.97;1.87;;;12.40;31.80;;;;;;4975475;28;20211;-58
2024/03/10 09:02:10;;;;;;;1.90;1.80;;;12.40;32.10;;;;;;4969961;28;20231;-58
2024/03/10 09:04:37;;;;;;;2.30;2.10;;;12.50;31.80;;;;;;4981604;28;20210;-59
2024/03/10 09:07:05;;;;;;;2.13;1.80;;;12.50;32.50;;;;;;4957247;28;20315;-58
2024/03/10 09:09:32;;;;;;;1.97;1.87;;;12.60;32.80;;;;;;4980132;28;20586;-57
2024/03/10 09:11:58;;;;;;;2.40;2.17;;;12.60;32.80;;;;;;4986450;28;20229;-56
2024/03/10 09:14:25;;;;;;;2.17;2.03;;;12.50;33.40;;;;;;4980080;28;20208;-57
2024/03/10 09:16:51;;;;;;;2.30;2.13;;;12.40;33.70;;;;;;4972287;28;20200;-58
2024/03/10 09:19:18;;;;;;;2.20;2.00;;;12.30;33.80;;;;;;4975351;28;20227;-58
2024/03/10 09:21:45;;;;;;;2.30;2.10;;;12.40;34.90;;;;;;4969721;28;20236;-58
2024/03/10 09:24:14;;;;;;;2.30;2.10;;;12.30;34.00;;;;;;4983937;28;20205;-58
2024/03/10 09:26:41;;;;;;;2.10;2.00;;;12.40;34.20;;;;;;4989683;28;20570;-56
2024/03/10 09:29:07;;;;;;;2.27;2.00;;;12.40;34.60;;;;;;4990220;28;20212;-59
2024/03/10 09:31:34;;;;;;;2.80;2.33;;;12.50;34.60;;;;;;4995833;28;20242;-59
2024/03/10 09:34:00;;;;;;;2.73;2.20;;;12.50;34.50;;;;;;4998632;28;20210;-60
2024/03/10 09:36:30;;;;;;;2.70;2.50;;;12.50;34.40;;;;;;4993745;28;20238;-59
2024/03/10 09:38:59;;;;;;;2.50;2.30;;;12.60;34.40;;;;;;4993383;28;20246;-58
2024/03/10 09:41:26;;;;;;;2.70;2.50;;;12.60;34.40;;;;;;4994607;28;20231;-60
2024/03/10 09:43:52;;;;;;;2.90;2.60;;;12.60;34.20;;;;;;4988144;28;20235;-58
2024/03/10 09:46:20;;;;;;;5.27;2.73;;;12.50;34.50;;;;;;4996725;28;20219;-59
2024/03/10 09:48:47;;;;;;;1.97;1.87;;;12.50;35.00;;;;;;4997820;28;20239;-59
2024/03/10 09:51:14;;;;;;;2.80;1.87;;;12.70;33.10;;;;;;5000094;28;20207;-60
2024/03/10 09:53:41;;;;;;;1.67;1.57;;;12.70;32.90;;;;;;5000338;28;20244;-59
2024/03/10 09:56:08;;;;;;;1.70;1.60;;;12.80;31.40;;;;;;4998763;28;20234;-59
2024/03/10 09:58:35;;;;;;;2.20;2.00;;;12.90;30.00;;;;;;4993220;28;20760;-59
2024/03/10 10:01:08;;;;;;;1.43;1.30;;;13.00;30.30;;;;;;4989702;28;20742;-57
2024/03/10 10:03:37;;;;;;;1.10;1.10;;;13.30;28.20;;;;;;4999499;28;20314;-59
2024/03/10 10:06:04;;;;;;;1.33;1.30;;;13.40;27.50;;;;;;4994180;28;20208;-59
2024/03/10 10:08:30;;;;;;;1.40;1.30;;;13.60;26.70;;;;;;4997885;28;20227;-59
2024/03/10 10:10:58;;;;;;;1.10;1.10;;;13.70;26.20;;;;;;4996495;28;20249;-58
2024/03/10 10:13:26;;;;;;;1.33;1.33;;;13.80;26.20;;;;;;4997417;28;20200;-59
2024/03/10 10:15:53;;;;;;;1.47;1.37;;;13.80;25.90;;;;;;4992301;28;20316;-58
2024/03/10 10:18:21;;;;;;;1.00;1.00;;;13.90;25.60;;;;;;4990048;28;20204;-59
2024/03/10 10:20:47;;;;;;;1.20;1.20;;;14.00;25.70;;;;;;4986466;28;20222;-59
2024/03/10 10:23:14;;;;;;;1.10;1.10;;;13.90;25.60;;;;;;4994751;28;20232;-59
2024/03/10 10:25:42;;;;;;;1.30;1.20;;;13.80;26.00;;;;;;4998986;28;20694;-58
2024/03/10 10:28:09;;;;;;;1.20;1.20;;;13.80;26.10;;;;;;4998690;28;20415;-58
2024/03/10 10:30:37;;;;;;;1.10;1.00;;;13.90;25.60;;;;;;4996961;28;20235;-59
2024/03/10 10:33:04;;;;;;;1.10;1.10;;;14.10;24.80;;;;;;4998201;28;20253;-60
2024/03/10 10:35:33;;;;;;;1.10;1.10;;;14.10;25.20;;;;;;4994207;28;20730;-59
2024/03/10 10:38:03;;;;;;;1.17;1.17;;;14.10;25.70;;;;;;4993657;28;20206;-59
2024/03/10 10:40:30;;;;;;;1.00;1.00;;;14.10;25.30;;;;;;4992776;28;20284;-59
2024/03/10 10:42:57;;;;;;;1.00;1.00;;;14.40;24.80;;;;;;4995362;28;20237;-58
2024/03/10 10:45:23;;;;;;;1.17;1.17;;;14.40;24.70;;;;;;4990873;28;20232;-58
2024/03/10 10:47:50;;;;;;;1.20;1.20;;;14.30;24.90;;;;;;4989648;28;20209;-58
2024/03/10 10:50:24;;;;;;;1.23;1.23;;;14.40;25.00;;;;;;4992549;28;20201;-58
2024/03/10 10:52:51;;;;;;;1.20;1.10;;;14.40;24.90;;;;;;4990207;28;20228;-59
2024/03/10 10:55:19;;;;;;;1.10;1.10;;;14.50;24.80;;;;;;4987660;28;20229;-58
2024/03/10 10:57:48;;;;;;;1.07;1.07;;;14.50;24.60;;;;;;4988921;28;20281;-59
2024/03/10 11:00:15;;;;;;;1.80;1.20;;;14.60;24.40;;;;;;4993561;28;20209;-59
2024/03/10 11:02:42;;;;;;;0.80;0.80;;;14.80;24.30;;;;;;4987092;28;20700;-59
2024/03/10 11:05:08;;;;;;;1.10;1.10;;;14.80;24.30;;;;;;4989096;28;20214;-58
2024/03/10 11:07:36;;;;;;;1.00;1.00;;;15.00;23.90;;;;;;4986353;28;20206;-60
2024/03/10 11:10:03;;;;;;;1.20;1.20;;;15.30;24.10;;;;;;4991750;28;20254;-58
2024/03/10 11:12:29;;;;;;;1.00;1.00;;;15.60;23.60;;;;;;4990829;28;20249;-60
2024/03/10 11:14:56;;;;;;;1.60;1.50;;;15.80;23.50;;;;;;4982984;28;20212;-59
2024/03/10 11:17:23;;;;;;;1.93;1.83;;;15.70;25.40;;;;;;4988351;28;20432;-59
2024/03/10 11:19:50;;;;;;;1.83;1.73;;;15.50;27.90;;;;;;4987447;28;20214;-60
2024/03/10 11:22:17;;;;;;;2.10;1.90;;;15.30;29.70;;;;;;4983676;28;20315;-61
2024/03/10 11:24:45;;;;;;;2.23;1.80;;;15.20;29.80;;;;;;4993486;28;20211;-59
2024/03/10 11:27:12;;;;;;;1.73;1.60;;;15.00;29.90;;;;;;4989291;28;20200;-59
2024/03/10 11:29:41;;;;;;;2.03;1.83;;;15.00;29.50;;;;;;4992884;28;20204;-59
2024/03/10 11:32:08;;;;;;;1.83;1.73;;;15.20;28.90;;;;;;4991267;28;20590;-58
2024/03/10 11:34:37;;;;;;;3.00;1.57;;;15.70;28.50;;;;;;4985374;28;20214;-61
2024/03/10 11:37:04;;;;;;;1.67;1.37;;;16.30;27.00;;;;;;4990501;28;20230;-60
2024/03/10 11:39:31;;;;;;;1.60;1.50;;;16.70;25.10;;;;;;4988586;28;20211;-60
2024/03/10 11:41:57;;;;;;;1.40;1.30;;;16.60;25.00;;;;;;4990985;28;20228;-59
2024/03/10 11:44:24;;;;;;;1.60;1.50;;;16.50;24.90;;;;;;4988208;28;20204;-60
2024/03/10 11:46:51;;;;;;;1.97;1.27;;;16.20;25.70;;;;;;4991920;28;20297;-60
2024/03/10 11:49:17;;;;;;;1.20;1.20;;;16.10;25.30;;;;;;4983368;28;20604;-60
2024/03/10 11:51:46;;;;;;;1.10;1.00;;;16.30;24.60;;;;;;4994104;28;20314;-60
2024/03/10 11:54:13;;;;;;;1.50;1.40;;;17.00;24.50;;;;;;4989199;28;20266;-60
2024/03/10 11:56:42;;;;;;;1.63;1.53;;;17.90;25.70;;;;;;4998538;28;20239;-60
2024/03/10 11:59:11;;;;;;;2.10;1.83;;;19.00;25.80;;;;;;5000334;28;20835;-61
2024/03/10 12:01:39;;;;;;;1.50;1.40;;;19.50;25.60;;;;;;4993253;28;20238;-60
2024/03/10 12:04:06;;;;;;;1.40;1.30;;;19.20;25.40;;;;;;4989673;28;20216;-60
2024/03/10 12:06:33;;;;;;;1.60;1.37;;;18.70;25.30;;;;;;5004971;28;20684;-61
2024/03/10 12:09:00;;;;;;;1.10;1.00;;;18.20;25.70;;;;;;4986396;28;20209;-61
2024/03/10 12:11:27;;;;;;;1.23;1.00;;;17.80;24.80;;;;;;4995444;28;20224;-60
2024/03/10 12:13:53;;;;;;;1.67;1.00;;;17.60;24.30;;;;;;4995863;28;20207;-60
2024/03/10 12:16:20;;;;;;;1.20;1.00;;;17.70;23.20;;;;;;4997527;28;20224;-60
2024/03/10 12:18:47;;;;;;;0.90;0.90;;;17.80;23.30;;;;;;5001144;28;20213;-60
2024/03/10 12:21:14;;;;;;;0.90;0.90;;;17.60;22.90;;;;;;4998348;28;20224;-59
2024/03/10 12:23:40;;;;;;;0.90;0.90;;;17.30;22.70;;;;;;4992241;28;20560;-60
2024/03/10 12:26:09;;;;;;;1.50;1.07;;;17.30;22.90;;;;;;4992474;28;20205;-61
2024/03/10 12:28:36;;;;;;;0.90;0.90;;;17.20;22.90;;;;;;4998697;28;20212;-60
2024/03/10 12:31:03;;;;;;;3.00;0.90;;;17.10;23.00;;;;;;4993506;28;20241;-60
2024/03/10 12:33:30;;;;;;;1.53;0.90;;;17.00;22.90;;;;;;4996367;28;20291;-60
2024/03/10 12:35:56;;;;;;;0.97;0.80;;;17.00;22.80;;;;;;4990012;28;20233;-54
2024/03/10 12:38:23;;;;;;;0.83;0.83;;;17.00;22.80;;;;;;4993624;28;20745;-59
2024/03/10 12:40:52;;;;;;;0.80;0.80;;;16.90;23.50;;;;;;4990515;28;20581;-59
2024/03/10 12:43:18;;;;;;;0.97;0.97;;;17.00;22.80;;;;;;4995015;28;20235;-58
2024/03/10 12:45:45;;;;;;;1.20;1.10;;;17.20;22.60;;;;;;4992318;28;20207;-60
2024/03/10 12:48:11;;;;;;;1.00;1.00;;;17.80;21.90;;;;;;4988459;28;20208;-58
2024/03/10 12:50:39;;;;;;;3.13;0.93;;;18.30;21.50;;;;;;4996365;28;20207;-60
2024/03/10 12:53:06;;;;;;;0.90;0.90;;;18.10;21.50;;;;;;4992242;28;20227;-60
2024/03/10 12:55:34;;;;;;;0.87;0.70;;;17.80;22.20;;;;;;4994061;28;20770;-59
2024/03/10 12:58:00;;;;;;;0.80;0.80;;;17.60;22.60;;;;;;4995640;28;20307;-58
2024/03/10 13:00:30;;;;;;;1.10;1.00;;;17.40;22.80;;;;;;4998671;28;20209;-58
2024/03/10 13:02:57;;;;;;;0.93;0.93;;;17.30;22.80;;;;;;4997148;28;20257;-59
2024/03/10 13:05:23;;;;;;;1.00;1.00;;;17.50;22.90;;;;;;4997430;28;20207;-58
2024/03/10 13:07:50;;;;;;;0.90;0.90;;;17.50;23.10;;;;;;4995916;28;20323;-57